Niamey, Niger
Current Conditions -  °F | °C
As of 3:00 PM on Wednesday 22 Oct 2014 (Local Time) from DRRN Reporting Station
Clear Clear  
Wind Chill: 100°   Ceiling: Unl
Heat Index: 100°   Visibility: 6mi
Dew Point: 30°   Wind: 6mph
Humidity: 9%   Direction: NA
Pressure: 29.8"   Gusts: NA
Location:  13.52°N, 2.12°E
Report Text: DRRN 221400Z VRB05KT CAVOK 38/M01 Q1009 NOSIG
Loading
Personal Weather Stations






























Interactive Weather Map
Tropical Storm Tracking
New forecast layout! Learn more

10-Day Weather Forecast

Advertisements
Track Severe Weather on mobile